createdAt,value
2022-11-06T00:01:44.392Z,101072.78
2022-11-06T00:04:47.559Z,101073.53
2022-11-06T00:07:49.718Z,101074.38
2022-11-06T00:10:52.657Z,101065.88
2022-11-06T00:13:57.239Z,101075.47
2022-11-06T00:17:00.147Z,101072.44
2022-11-06T00:20:04.346Z,101075.38
2022-11-06T00:23:07.547Z,101072.13
2022-11-06T00:26:13.607Z,101069.13
2022-11-06T00:29:18.327Z,101068.72
2022-11-06T00:32:21.446Z,101064.91
2022-11-06T00:35:24.366Z,101066.22
2022-11-06T00:38:27.346Z,101069.00
2022-11-06T00:41:30.298Z,101072.38
2022-11-06T00:44:34.605Z,101064.50
2022-11-06T00:47:37.747Z,101069.06
2022-11-06T00:50:40.673Z,101065.88
2022-11-06T00:53:44.701Z,101058.69
2022-11-06T00:56:47.622Z,101059.91
2022-11-06T00:59:51.871Z,101058.22
2022-11-06T01:02:57.132Z,101057.72
2022-11-06T01:06:07.000Z,101066.84
2022-11-06T01:09:12.555Z,101067.16
2022-11-06T01:12:15.486Z,101057.66
2022-11-06T01:15:19.878Z,101055.88
2022-11-06T01:18:22.819Z,101066.31
2022-11-06T01:21:28.665Z,101058.34
2022-11-06T01:24:31.930Z,101053.31
2022-11-06T01:27:35.260Z,101049.09
2022-11-06T01:30:39.605Z,101050.19
2022-11-06T01:33:43.183Z,101035.28
2022-11-06T01:36:47.015Z,101044.25
2022-11-06T01:39:51.364Z,101033.81
2022-11-06T01:42:54.347Z,101024.03
2022-11-06T01:45:58.758Z,101016.97
2022-11-06T01:49:05.785Z,101024.03
2022-11-06T01:52:11.418Z,101014.66
2022-11-06T01:55:20.403Z,101017.31
2022-11-06T01:58:26.671Z,101004.09
2022-11-06T02:01:31.397Z,101003.22
2022-11-06T02:04:39.261Z,101004.31
2022-11-06T02:07:44.211Z,101006.00
2022-11-06T02:10:47.615Z,101005.84
2022-11-06T02:14:03.345Z,100992.94
2022-11-06T02:17:16.884Z,100979.16
2022-11-06T02:20:31.026Z,100979.16
2022-11-06T02:23:56.564Z,100977.94
2022-11-06T02:27:11.082Z,100973.38
2022-11-06T02:30:16.039Z,100971.59
2022-11-06T02:33:25.329Z,100969.03
2022-11-06T02:39:53.364Z,100969.03
2022-11-06T02:42:59.770Z,100975.91
2022-11-06T02:46:07.944Z,100973.25
2022-11-06T02:49:17.403Z,100968.09
2022-11-06T02:52:24.788Z,100974.66
2022-11-06T02:55:34.571Z,100973.00
2022-11-06T02:58:47.903Z,100975.84
2022-11-06T03:01:56.210Z,100966.94
2022-11-06T03:05:06.554Z,100971.31
2022-11-06T03:08:17.469Z,100969.66
2022-11-06T03:11:24.107Z,100960.84
2022-11-06T03:14:33.767Z,100960.84
2022-11-06T03:17:45.270Z,100963.41
2022-11-06T03:20:58.496Z,100959.72
2022-11-06T03:24:10.861Z,100958.81
2022-11-06T03:27:18.885Z,100956.16
2022-11-06T03:30:23.469Z,100950.69
2022-11-06T03:33:34.038Z,100974.09
2022-11-06T03:36:42.030Z,100977.00
2022-11-06T03:39:55.141Z,100970.94
2022-11-06T03:43:02.908Z,100970.13
2022-11-06T03:46:12.818Z,100963.81
2022-11-06T03:49:23.648Z,100968.50
2022-11-06T03:52:33.821Z,100968.44
2022-11-06T03:55:46.175Z,100960.34
2022-11-06T03:58:50.879Z,100951.94
2022-11-06T04:01:58.028Z,100954.22
2022-11-06T04:05:06.065Z,100953.31
2022-11-06T04:08:30.032Z,100952.50
2022-11-06T04:11:54.452Z,100951.88
2022-11-06T04:15:00.319Z,100946.53
2022-11-06T04:18:05.034Z,100951.69
2022-11-06T04:21:25.843Z,100949.84
2022-11-06T04:25:00.616Z,100950.50
2022-11-06T04:28:22.840Z,100944.75
2022-11-06T04:31:35.785Z,100942.59
2022-11-06T04:34:47.626Z,100948.06
2022-11-06T04:37:59.778Z,100948.34
2022-11-06T04:41:13.406Z,100950.94
2022-11-06T04:44:24.761Z,100958.09
2022-11-06T04:47:28.597Z,100944.47
2022-11-06T04:50:39.398Z,100952.69
2022-11-06T04:53:44.029Z,100946.31
2022-11-06T04:56:47.013Z,100947.03
2022-11-06T04:59:49.993Z,100943.69
2022-11-06T05:02:52.921Z,100938.38
2022-11-06T05:05:57.273Z,100929.09
2022-11-06T05:09:01.174Z,100927.84
2022-11-06T05:12:04.430Z,100922.38
2022-11-06T05:15:08.947Z,100938.56
2022-11-06T05:18:12.431Z,100933.22
2022-11-06T05:21:34.570Z,100923.94
2022-11-06T05:24:37.612Z,100938.09
2022-11-06T05:27:40.532Z,100940.25
2022-11-06T05:30:43.446Z,100943.09
2022-11-06T05:33:46.359Z,100943.00
2022-11-06T05:36:50.585Z,100936.19
2022-11-06T05:39:53.548Z,100933.66
2022-11-06T05:42:56.472Z,100932.88
2022-11-06T05:46:00.470Z,100938.31
2022-11-06T05:49:03.427Z,100934.00
2022-11-06T05:52:07.655Z,100937.59
2022-11-06T05:55:14.747Z,100936.94
2022-11-06T05:58:18.208Z,100933.59
2022-11-06T06:01:21.299Z,100943.28
2022-11-06T06:04:24.281Z,100943.03
2022-11-06T06:07:28.536Z,100948.47
2022-11-06T06:10:31.534Z,100938.81
2022-11-06T06:13:36.629Z,100939.50
2022-11-06T06:16:39.554Z,100947.69
2022-11-06T06:19:42.897Z,100941.88
2022-11-06T06:22:54.966Z,100943.72
2022-11-06T06:25:58.364Z,100947.88
2022-11-06T06:29:02.117Z,100947.59
2022-11-06T06:32:06.184Z,100947.28
2022-11-06T06:35:09.619Z,100951.84
2022-11-06T06:38:14.257Z,100945.84
2022-11-06T06:41:17.613Z,100948.13
2022-11-06T06:44:20.560Z,100948.97
2022-11-06T06:47:23.525Z,100956.28
2022-11-06T06:50:26.492Z,100958.47
2022-11-06T06:53:31.113Z,100955.34
2022-11-06T06:56:34.071Z,100954.81
2022-11-06T06:59:37.018Z,100952.81
2022-11-06T07:02:39.950Z,100944.75
2022-11-06T07:05:43.045Z,100948.88
2022-11-06T07:08:47.910Z,100947.78
2022-11-06T07:11:51.040Z,100947.66
2022-11-06T07:14:53.990Z,100947.28
2022-11-06T07:17:57.137Z,100940.06
2022-11-06T07:21:00.151Z,100937.13
2022-11-06T07:24:05.045Z,100935.00
2022-11-06T07:27:07.961Z,100944.03
2022-11-06T07:30:12.880Z,100945.38
2022-11-06T07:33:15.952Z,100930.44
2022-11-06T07:36:19.054Z,100920.88
2022-11-06T07:39:23.316Z,100920.47
2022-11-06T07:42:26.256Z,100922.31
2022-11-06T07:45:37.949Z,100913.47
2022-11-06T07:48:40.937Z,100921.69
2022-11-06T07:51:44.260Z,100914.28
2022-11-06T07:54:48.704Z,100913.13
2022-11-06T07:57:52.071Z,100920.31
2022-11-06T08:00:57.717Z,100906.25
2022-11-06T08:04:00.702Z,100908.56
2022-11-06T08:07:03.672Z,100905.56
2022-11-06T08:10:09.179Z,100916.59
2022-11-06T08:13:13.780Z,100912.88
2022-11-06T08:16:16.709Z,100913.91
2022-11-06T08:19:20.118Z,100913.59
2022-11-06T08:22:23.020Z,100911.56
2022-11-06T08:25:27.692Z,100908.53
2022-11-06T08:28:31.103Z,100899.19
2022-11-06T08:31:34.027Z,100893.53
2022-11-06T08:34:36.992Z,100906.75
2022-11-06T08:37:39.930Z,100912.91
2022-11-06T08:40:47.059Z,100918.78
2022-11-06T08:43:53.169Z,100930.50
2022-11-06T08:46:56.308Z,100927.34
2022-11-06T08:49:59.272Z,100927.53
2022-11-06T08:53:04.367Z,100922.81
2022-11-06T08:56:09.389Z,100929.19
2022-11-06T08:59:12.322Z,100933.13
2022-11-06T09:02:16.110Z,100951.94
2022-11-06T09:05:19.214Z,100962.38
2022-11-06T09:08:22.161Z,100972.28
2022-11-06T09:11:26.500Z,100974.72
2022-11-06T09:14:29.606Z,100989.66
2022-11-06T09:17:32.868Z,100993.03
2022-11-06T09:20:36.433Z,101001.53
2022-11-06T09:23:39.552Z,101004.25
2022-11-06T09:26:43.878Z,101014.88
2022-11-06T09:29:48.326Z,101022.78
2022-11-06T09:32:53.634Z,101031.19
2022-11-06T09:35:56.602Z,101047.25
2022-11-06T09:38:59.536Z,101058.13
2022-11-06T09:42:16.957Z,101072.03
2022-11-06T09:45:24.331Z,101068.91
2022-11-06T09:48:32.174Z,101079.78
2022-11-06T09:51:40.494Z,101089.34
2022-11-06T09:54:50.850Z,101097.63
2022-11-06T09:58:03.357Z,101092.75
2022-11-06T10:01:22.022Z,101085.88
2022-11-06T10:04:43.140Z,101095.44
2022-11-06T10:07:47.875Z,101086.03
2022-11-06T10:11:02.988Z,101085.91
2022-11-06T10:14:23.807Z,101081.63
2022-11-06T10:17:44.333Z,101075.59
2022-11-06T10:20:53.664Z,101090.09
2022-11-06T10:23:59.821Z,101097.88
2022-11-06T10:27:05.789Z,101095.22
2022-11-06T10:30:13.906Z,101100.16
2022-11-06T10:33:36.218Z,101086.03
2022-11-06T10:36:49.532Z,101083.16
2022-11-06T10:39:55.200Z,101085.94
2022-11-06T10:43:10.048Z,101082.97
2022-11-06T10:46:25.148Z,101079.81
2022-11-06T10:49:41.137Z,101082.09
2022-11-06T10:52:56.375Z,101085.06
2022-11-06T10:56:21.492Z,101078.78
2022-11-06T10:59:24.667Z,101077.78
2022-11-06T11:02:32.917Z,101078.38
2022-11-06T11:05:41.754Z,101078.31
2022-11-06T11:08:47.184Z,101085.44
2022-11-06T11:11:50.743Z,101076.34
2022-11-06T11:15:14.425Z,101078.97
2022-11-06T11:18:23.989Z,101069.72
2022-11-06T11:21:28.224Z,101065.06
2022-11-06T11:24:32.447Z,101055.25
2022-11-06T11:27:44.273Z,101070.50
2022-11-06T11:30:58.126Z,101065.69
2022-11-06T11:34:05.437Z,101064.88
2022-11-06T11:37:08.981Z,101061.94
2022-11-06T11:40:36.470Z,101061.09
2022-11-06T11:43:40.755Z,101062.88
2022-11-06T11:46:49.729Z,101058.28
2022-11-06T11:49:57.464Z,101058.38
2022-11-06T11:53:10.451Z,101055.03
2022-11-06T11:56:30.959Z,101054.84
2022-11-06T11:59:46.250Z,101045.63
2022-11-06T12:02:54.128Z,101054.94
2022-11-06T12:06:10.185Z,101056.00
2022-11-06T12:09:14.757Z,101048.31
2022-11-06T12:12:23.850Z,101045.75
2022-11-06T12:15:31.664Z,101041.91
2022-11-06T12:18:37.515Z,101021.28
2022-11-06T12:21:46.224Z,101023.53
2022-11-06T12:24:56.035Z,101021.81
2022-11-06T12:28:02.129Z,101019.06
2022-11-06T12:31:15.693Z,101021.63
2022-11-06T12:34:29.726Z,101024.16
2022-11-06T12:37:47.308Z,101013.59
2022-11-06T12:40:56.809Z,101006.00
2022-11-06T12:44:00.326Z,101002.66
2022-11-06T12:47:14.094Z,101002.84
2022-11-06T12:50:32.086Z,101015.50
2022-11-06T12:53:54.859Z,101005.06
2022-11-06T12:57:07.431Z,101004.53
2022-11-06T13:00:14.422Z,101000.53
2022-11-06T13:03:36.456Z,100990.09
2022-11-06T13:07:28.906Z,100994.69
2022-11-06T13:10:52.720Z,100993.09
2022-11-06T13:14:10.594Z,100984.56
2022-11-06T13:17:19.611Z,100982.00
2022-11-06T13:20:30.212Z,100990.63
2022-11-06T13:23:39.618Z,100993.78
2022-11-06T13:26:48.957Z,100992.63
2022-11-06T13:29:55.748Z,100985.66
2022-11-06T13:33:08.622Z,100984.91
2022-11-06T13:36:12.599Z,100962.88
2022-11-06T13:39:23.158Z,100960.72
2022-11-06T13:42:34.907Z,100953.16
2022-11-06T13:45:47.286Z,100958.16
2022-11-06T13:49:02.297Z,100949.09
2022-11-06T13:52:14.160Z,100951.28
2022-11-06T13:55:24.385Z,100939.22
2022-11-06T13:59:06.698Z,100932.03
2022-11-06T14:02:40.553Z,100932.88
2022-11-06T14:05:50.778Z,100931.72
2022-11-06T14:08:57.001Z,100939.19
2022-11-06T14:12:05.010Z,100932.97
2022-11-06T14:15:33.260Z,100938.09
2022-11-06T14:18:36.895Z,100928.63
2022-11-06T14:21:50.893Z,100928.94
2022-11-06T14:25:00.964Z,100922.16
2022-11-06T14:28:07.150Z,100924.25
2022-11-06T14:31:14.818Z,100916.69
2022-11-06T14:34:29.844Z,100913.22
2022-11-06T14:37:49.839Z,100913.88
2022-11-06T14:40:52.937Z,100909.78
2022-11-06T14:44:06.424Z,100900.09
2022-11-06T14:47:26.821Z,100907.72
2022-11-06T14:50:36.737Z,100898.31
2022-11-06T14:53:47.432Z,100885.41
2022-11-06T14:56:54.999Z,100890.19
2022-11-06T14:59:58.761Z,100883.84
2022-11-06T15:03:06.361Z,100863.00
2022-11-06T15:06:38.016Z,100860.19
2022-11-06T15:09:48.604Z,100858.97
2022-11-06T15:13:12.357Z,100854.25
2022-11-06T15:16:16.103Z,100851.03
2022-11-06T15:19:24.655Z,100853.00
2022-11-06T15:22:34.900Z,100854.19
2022-11-06T15:25:46.994Z,100846.34
2022-11-06T15:29:05.899Z,100836.44
2022-11-06T15:32:14.142Z,100833.34
2022-11-06T15:35:22.561Z,100822.59
2022-11-06T15:38:39.895Z,100821.78
2022-11-06T15:41:42.973Z,100819.25
2022-11-06T15:44:47.965Z,100821.69
2022-11-06T15:47:57.648Z,100817.94
2022-11-06T15:51:02.183Z,100811.44
2022-11-06T15:54:05.473Z,100811.22
2022-11-06T15:57:17.600Z,100796.47
2022-11-06T16:00:23.604Z,100788.78
2022-11-06T16:03:30.416Z,100779.72
2022-11-06T16:06:35.446Z,100770.38
2022-11-06T16:09:42.006Z,100758.97
2022-11-06T16:12:45.531Z,100754.78
2022-11-06T16:16:00.427Z,100740.41
2022-11-06T16:19:06.643Z,100723.66
2022-11-06T16:22:14.586Z,100717.25
2022-11-06T16:25:19.990Z,100707.34
2022-11-06T16:28:24.044Z,100710.03
2022-11-06T16:31:30.092Z,100722.69
2022-11-06T16:34:44.090Z,100719.75
2022-11-06T16:37:48.524Z,100697.13
2022-11-06T16:40:52.782Z,100707.69
2022-11-06T16:44:29.634Z,100710.94
2022-11-06T16:47:34.246Z,100707.63
2022-11-06T16:50:47.175Z,100708.63
2022-11-06T16:53:56.779Z,100695.00
2022-11-06T16:57:10.296Z,100698.63
2022-11-06T17:00:25.457Z,100708.00
2022-11-06T17:03:37.079Z,100709.38
2022-11-06T17:06:40.498Z,100718.66
2022-11-06T17:09:45.058Z,100719.59
2022-11-06T17:12:48.238Z,100707.56
2022-11-06T17:15:55.332Z,100704.25
2022-11-06T17:18:58.489Z,100705.81
2022-11-06T17:22:01.604Z,100710.19
2022-11-06T17:25:07.113Z,100713.06
2022-11-06T17:28:10.732Z,100703.22
2022-11-06T17:31:16.636Z,100700.06
2022-11-06T17:34:19.685Z,100697.84
2022-11-06T17:37:22.813Z,100691.00
2022-11-06T17:40:27.340Z,100687.09
2022-11-06T17:43:30.635Z,100683.09
2022-11-06T17:46:36.098Z,100675.44
2022-11-06T17:49:39.355Z,100678.97
2022-11-06T17:52:42.690Z,100675.00
2022-11-06T17:55:47.369Z,100682.28
2022-11-06T17:58:50.525Z,100678.56
2022-11-06T18:01:54.566Z,100680.03
2022-11-06T18:04:57.737Z,100680.41
2022-11-06T18:08:00.652Z,100673.31
2022-11-06T18:11:05.323Z,100664.13
2022-11-06T18:14:08.536Z,100666.44
2022-11-06T18:17:11.522Z,100673.50
2022-11-06T18:20:14.535Z,100676.66
2022-11-06T18:23:17.893Z,100671.53
2022-11-06T18:26:22.367Z,100669.81
2022-11-06T18:29:25.713Z,100668.09
2022-11-06T18:32:28.769Z,100673.13
2022-11-06T18:35:31.926Z,100664.94
2022-11-06T18:38:35.899Z,100658.22
2022-11-06T18:41:40.396Z,100653.94
2022-11-06T18:44:43.485Z,100644.50
2022-11-06T18:47:46.555Z,100637.72
2022-11-06T18:50:50.378Z,100641.16
2022-11-06T18:53:57.596Z,100635.25
2022-11-06T18:57:01.994Z,100632.00
2022-11-06T19:00:06.979Z,100631.16
2022-11-06T19:03:11.768Z,100639.13
2022-11-06T19:06:18.614Z,100640.03
2022-11-06T19:09:22.155Z,100637.66
2022-11-06T19:12:26.622Z,100643.00
2022-11-06T19:15:29.887Z,100639.94
2022-11-06T19:18:36.365Z,100628.91
2022-11-06T19:21:42.713Z,100628.19
2022-11-06T19:24:46.905Z,100620.56
2022-11-06T19:27:52.842Z,100627.88
2022-11-06T19:30:55.894Z,100621.13
2022-11-06T19:34:00.274Z,100618.06
2022-11-06T19:37:03.356Z,100630.16
2022-11-06T19:40:08.697Z,100620.00
2022-11-06T19:43:14.228Z,100623.66
2022-11-06T19:46:24.124Z,100623.88
2022-11-06T19:49:27.829Z,100615.34
2022-11-06T19:52:42.261Z,100618.03
2022-11-06T19:55:46.703Z,100601.06
2022-11-06T19:58:52.470Z,100611.44
2022-11-06T20:01:56.111Z,100603.09
2022-11-06T20:05:02.233Z,100605.78
2022-11-06T20:08:05.336Z,100594.59
2022-11-06T20:11:13.738Z,100588.59
2022-11-06T20:14:21.704Z,100592.06
2022-11-06T20:17:24.815Z,100587.72
2022-11-06T20:20:33.240Z,100587.09
2022-11-06T20:23:39.589Z,100580.31
2022-11-06T20:26:43.100Z,100571.72
2022-11-06T20:29:47.783Z,100576.81
2022-11-06T20:32:50.978Z,100574.25
2022-11-06T20:35:54.177Z,100577.91
2022-11-06T20:39:00.157Z,100567.56
2022-11-06T20:42:03.227Z,100564.97
2022-11-06T20:45:10.147Z,100553.69
2022-11-06T20:48:13.086Z,100557.00
2022-11-06T20:51:18.760Z,100547.56
2022-11-06T20:54:21.796Z,100542.66
2022-11-06T20:57:24.797Z,100524.63
2022-11-06T21:00:32.470Z,100519.47
2022-11-06T21:03:35.822Z,100504.97
2022-11-06T21:06:39.636Z,100501.88
2022-11-06T21:09:42.788Z,100499.47
2022-11-06T21:12:46.174Z,100492.63
2022-11-06T21:15:57.237Z,100491.81
2022-11-06T21:19:01.799Z,100483.28
2022-11-06T21:22:04.919Z,100481.63
2022-11-06T21:25:08.951Z,100480.69
2022-11-06T21:28:12.029Z,100476.59
2022-11-06T21:31:19.031Z,100474.13
2022-11-06T21:34:22.201Z,100470.59
2022-11-06T21:37:32.824Z,100464.59
2022-11-06T21:40:36.467Z,100458.59
2022-11-06T21:43:39.497Z,100454.91
2022-11-06T21:46:45.544Z,100447.88
2022-11-06T21:49:53.887Z,100458.41
2022-11-06T21:53:14.950Z,100443.81
2022-11-06T21:56:24.958Z,100447.03
2022-11-06T21:59:30.526Z,100442.69
2022-11-06T22:02:34.828Z,100443.53
2022-11-06T22:05:38.003Z,100440.09
2022-11-06T22:08:44.714Z,100439.19
2022-11-06T22:11:47.738Z,100425.41
2022-11-06T22:14:50.690Z,100434.78
2022-11-06T22:17:55.163Z,100423.59
2022-11-06T22:21:07.778Z,100430.31
2022-11-06T22:24:13.516Z,100430.31
2022-11-06T22:27:16.464Z,100433.66
2022-11-06T22:30:19.390Z,100433.75
2022-11-06T22:33:23.648Z,100430.31
2022-11-06T22:36:26.956Z,100424.31
2022-11-06T22:39:30.048Z,100426.06
2022-11-06T22:42:34.298Z,100423.47
2022-11-06T22:45:38.446Z,100428.84
2022-11-06T22:48:43.281Z,100417.56
2022-11-06T22:51:47.836Z,100420.16
2022-11-06T22:54:51.258Z,100419.97
2022-11-06T22:57:54.355Z,100404.44
2022-11-06T23:00:59.287Z,100419.25
2022-11-06T23:04:05.246Z,100409.81
2022-11-06T23:07:08.269Z,100417.56
2022-11-06T23:10:11.499Z,100415.00
2022-11-06T23:13:14.609Z,100416.44
2022-11-06T23:16:42.451Z,100413.88
2022-11-06T23:19:46.816Z,100417.94
2022-11-06T23:22:50.453Z,100417.84
2022-11-06T23:25:53.674Z,100422.94
2022-11-06T23:28:57.539Z,100415.09
2022-11-06T23:32:00.487Z,100427.75
2022-11-06T23:35:07.260Z,100427.94
2022-11-06T23:38:13.323Z,100425.28
2022-11-06T23:41:35.548Z,100402.88
2022-11-06T23:44:56.284Z,100416.84
2022-11-06T23:48:02.116Z,100415.09
2022-11-06T23:51:08.794Z,100413.44
2022-11-06T23:54:11.736Z,100410.75
2022-11-06T23:57:14.972Z,100414.25
